Latest Weather Observations for East Sale Airport

IDV60801

Issued at 8:42 am EST Saturday 24 August 2019 (issued every 10 minutes, with the page automatically refreshed every 10 minutes)

About weather observations | Map of weather stations | Latest weather observations for VIC | Other Formats
Station Details ID: 085314 Name: EAST SALE AIRPORT Lat: -38.10 Lon: 147.14 Height: 5.3 m
Data from the previous 72 hours. | See also: Recent months at East Sale Airport
Date/Time
EST
Temp
°C
App
Temp
°C
Dew
Point
°C
Rel
Hum
%
Delta-T
°C
Wind Press
QNH
hPa
Press
MSL
hPa
Rain since
9am
mm
Dir  Spd
km/h
Gust
km/h
Spd
kts
Gust
kts
24/08:30am 3.5 0.3 3.1 97 0.2 N 9 11 5 6 1016.4 - 0.0
24/08:00am 1.1 -2.1 1.0 99 0.0 N 7 13 4 7 1016.7 - 0.0
24/07:30am -0.8 -4.2 -0.8 100 0.0 N 7 11 4 6 1016.9 - 0.0
24/07:16am -1.1 -4.6 -1.1 100 0.0 NNW 7 9 4 5 1016.9 - 0.0
24/07:00am -1.5 -5.0 -1.6 99 0.0 N 7 11 4 6 1016.8 - 0.0
24/06:57am -1.3 -4.8 -1.4 99 0.0 N 7 9 4 5 1016.7 - 0.0
24/06:42am -1.1 -3.6 -1.2 99 0.0 NW 2 7 1 4 1016.9 - 0.0
24/06:30am -0.7 -4.1 -0.8 99 0.0 NW 7 9 4 5 1016.7 - 0.0
24/06:23am 0.0 -3.1 -0.1 99 0.0 NNW 6 9 3 5 1016.7 - 0.0
24/06:00am 0.3 -2.8 0.2 99 0.0 SW 6 9 3 5 1016.5 - 0.0
24/05:41am 0.0 -4.1 -0.1 99 0.0 SSW 11 13 6 7 1016.5 - 0.0
24/05:34am -0.2 -3.9 -0.3 99 0.0 SW 9 13 5 7 1016.4 - 0.0
24/05:30am -0.4 -4.2 -0.5 99 0.0 SW 9 11 5 6 1016.4 - 0.0
24/05:00am 0.6 -3.4 0.5 99 0.0 NW 11 15 6 8 1016.1 - 0.0
24/04:30am 0.3 -4.1 0.2 99 0.0 NNW 13 17 7 9 1016.1 - 0.0
24/04:00am 0.7 -2.9 0.6 99 0.0 NW 9 11 5 6 1016.3 - 0.0
24/03:50am 0.5 -3.5 0.4 99 0.0 NW 11 13 6 7 1016.5 - 0.0
24/03:30am 0.3 -4.1 0.2 99 0.0 NW 13 17 7 9 1016.5 - 0.0
24/03:00am -0.3 -4.1 -0.6 98 0.1 NW 9 13 5 7 1016.6 - 0.0
24/02:36am -0.3 -4.1 -0.7 97 0.1 NNW 9 15 5 8 1017.0 - 0.0
24/02:30am -0.1 -3.9 -0.5 97 0.1 N 9 15 5 8 1016.9 - 0.0
24/02:27am 0.0 -3.8 -0.6 96 0.2 N 9 15 5 8 1017.0 - 0.0
24/02:00am 1.3 -1.9 0.7 96 0.2 NW 7 11 4 6 1017.1 - 0.0
24/01:30am 1.9 -1.0 1.2 95 0.3 NW 6 7 3 4 1017.2 - 0.0
24/01:00am 1.7 -0.6 0.7 93 0.4 WNW 2 9 1 5 1017.5 - 0.0
24/12:30am 2.6 0.1 1.6 93 0.4 NW 4 9 2 5 1017.6 - 0.0
24/12:00am 2.5 0.7 1.2 91 0.5 CALM 0 6 0 3 1017.9 - 0.0
 
Date/Time
EST
Temp
°C
App
Temp
°C
Dew
Point
°C
Rel
Hum
%
Delta-T
°C
Wind Press
QNH
hPa
Press
MSL
hPa
Rain since
9am
mm
Dir  Spd
km/h
Gust
km/h
Spd
kts
Gust
kts
23/11:30pm 4.9 2.4 3.7 92 0.5 NNW 6 7 3 4 1018.2 - 0.0
23/11:00pm 4.0 1.2 3.1 94 0.4 E 7 11 4 6 1018.5 - 0.0
23/10:30pm 4.1 1.3 3.2 94 0.4 E 7 9 4 5 1019.0 - 0.0
23/10:00pm 4.6 1.9 3.7 94 0.4 ENE 7 9 4 5 1019.3 - 0.0
23/09:30pm 5.3 2.7 4.3 93 0.4 ENE 7 9 4 5 1019.6 - 0.0
23/09:00pm 5.9 4.7 4.7 92 0.5 CALM 0 0 0 0 1020.1 - 0.0
23/08:30pm 5.8 3.4 4.3 90 0.6 E 6 7 3 4 1020.3 - 0.0
23/08:00pm 6.0 3.4 4.2 88 0.8 ESE 7 7 4 4 1020.4 - 0.0
23/07:30pm 7.0 4.2 5.3 89 0.8 SE 9 9 5 5 1020.5 - 0.0
23/07:00pm 6.9 3.7 4.9 87 0.9 SSE 11 13 6 7 1020.5 - 0.0
23/06:30pm 7.6 4.4 5.2 85 1.1 SSE 11 13 6 7 1020.2 - 0.0
23/06:00pm 8.8 4.9 5.5 80 1.5 SE 15 17 8 9 1019.8 - 0.0
23/05:30pm 10.0 5.9 6.0 76 1.8 SE 17 22 9 12 1019.5 - 0.0
23/05:00pm 12.0 7.9 6.3 68 2.7 S 17 22 9 12 1019.4 - 0.0
23/04:30pm 15.2 13.1 6.7 57 4.1 NW 7 11 4 6 1019.1 - 0.0
23/04:00pm 14.8 12.3 6.4 57 4.0 W 9 13 5 7 1019.2 - 0.0
23/03:30pm 14.9 12.9 7.0 59 3.9 WNW 7 13 4 7 1019.5 - 0.0
23/03:00pm 14.3 11.8 6.6 60 3.7 SW 9 13 5 7 1019.8 - 0.0
23/02:30pm 14.3 11.8 6.6 60 3.7 WNW 9 15 5 8 1020.0 - 0.0
23/02:00pm 14.0 10.4 6.6 61 3.6 WNW 15 20 8 11 1020.3 - 0.0
23/01:30pm 13.4 9.6 5.6 59 3.7 WNW 15 20 8 11 1021.0 - 0.0
23/01:00pm 13.0 8.8 5.9 62 3.3 WNW 17 24 9 13 1021.4 - 0.0
23/12:30pm 12.2 7.4 4.9 61 3.3 WNW 19 30 10 16 1022.0 - 0.0
23/12:00pm 11.8 7.7 4.5 61 3.3 WNW 15 22 8 12 1022.6 - 0.0
23/11:30am 11.4 7.3 4.4 62 3.2 WNW 15 20 8 11 1023.3 - 0.0
23/11:00am 10.7 7.0 4.4 65 2.8 WNW 13 19 7 10 1023.9 - 0.0
23/10:30am 9.8 6.0 4.0 67 2.6 NW 13 17 7 9 1024.4 - 0.0
23/10:00am 8.7 5.2 3.3 69 2.3 WNW 11 15 6 8 1024.8 - 0.0
23/09:30am 7.6 3.5 2.5 70 2.1 WNW 13 17 7 9 1025.0 - 0.0
23/09:00am 6.8 2.7 2.3 73 1.8 W 13 19 7 10 1025.4 - 1.0
23/08:30am 5.8 2.1 2.1 77 1.5 W 11 17 6 9 1025.4 - 1.0
23/08:00am 4.9 1.2 2.3 83 1.0 W 11 13 6 7 1025.5 - 1.0
23/07:30am 3.4 0.0 1.9 90 0.6 W 9 11 5 6 1025.4 - 1.0
23/07:00am 2.8 -0.3 1.6 92 0.5 WNW 7 9 4 5 1025.3 - 1.0
23/06:30am 3.0 0.0 1.7 91 0.5 W 7 9 4 5 1025.2 - 1.0
23/06:00am 3.7 0.0 2.2 90 0.6 NW 11 11 6 6 1025.2 - 1.0
23/05:30am 3.7 0.3 1.9 88 0.7 NW 9 11 5 6 1025.0 - 1.0
23/05:00am 4.3 1.3 2.3 87 0.8 WNW 7 9 4 5 1025.0 - 1.0
23/04:30am 5.0 2.1 2.7 85 0.9 WNW 7 9 4 5 1025.1 - 1.0
23/04:00am 5.5 1.9 3.0 84 1.0 NW 11 13 6 7 1025.2 - 1.0
23/03:30am 5.9 2.8 3.4 84 1.0 NW 9 13 5 7 1025.2 - 1.0
23/03:00am 6.4 3.3 3.7 83 1.1 NW 9 15 5 8 1025.4 - 1.0
23/02:30am 6.6 3.5 3.6 81 1.3 WNW 9 15 5 8 1025.6 - 1.0
23/02:00am 6.5 3.3 3.3 80 1.3 WNW 9 11 5 6 1025.8 - 1.0
23/01:30am 6.4 2.9 3.4 81 1.3 NW 11 13 6 7 1026.0 - 1.0
23/01:00am 6.7 2.4 3.3 79 1.4 NW 15 19 8 10 1026.0 - 1.0
23/12:30am 6.9 2.6 3.5 79 1.4 WNW 15 19 8 10 1026.1 - 1.0
23/12:00am 6.4 2.8 3.0 79 1.4 NW 11 13 6 7 1026.1 - 1.0
 
Date/Time
EST
Temp
°C
App
Temp
°C
Dew
Point
°C
Rel
Hum
%
Delta-T
°C
Wind Press
QNH
hPa
Press
MSL
hPa
Rain since
9am
mm
Dir  Spd
km/h
Gust
km/h
Spd
kts
Gust
kts
22/11:30pm 6.2 1.8 2.8 79 1.4 NW 15 19 8 10 1026.1 - 1.0
22/11:00pm 5.9 1.5 2.7 80 1.3 NW 15 19 8 10 1026.0 - 1.0
22/10:30pm 5.6 1.9 2.4 80 1.3 WNW 11 15 6 8 1026.1 - 1.0
22/10:00pm 6.7 3.5 3.0 77 1.5 NW 9 11 5 6 1026.1 - 1.0
22/09:30pm 6.6 3.0 3.0 78 1.5 WNW 11 13 6 7 1025.9 - 1.0
22/09:00pm 6.1 2.0 2.4 77 1.5 NW 13 17 7 9 1026.0 - 1.0
22/08:30pm 7.4 3.0 2.9 73 1.9 WNW 15 20 8 11 1025.8 - 1.0
22/08:00pm 6.1 2.3 1.6 73 1.8 WNW 11 15 6 8 1025.4 - 1.0
22/07:30pm 7.3 3.5 1.6 67 2.3 W 11 13 6 7 1025.1 - 1.0
22/07:00pm 7.1 3.6 1.0 65 2.4 NW 9 11 5 6 1025.0 - 1.0
22/06:30pm 8.3 4.8 1.0 60 2.9 WSW 9 13 5 7 1024.4 - 1.0
22/06:00pm 8.9 3.9 1.1 58 3.2 SW 17 22 9 12 1024.3 - 1.0
22/05:30pm 9.4 4.4 1.6 58 3.2 SW 17 22 9 12 1023.7 - 1.0
22/05:00pm 10.8 4.5 1.4 52 3.9 SW 24 32 13 17 1023.0 - 1.0
22/04:30pm 11.7 5.8 1.9 51 4.2 SW 22 30 12 16 1022.9 - 1.0
22/04:00pm 12.0 6.0 0.8 46 4.7 SW 22 30 12 16 1022.4 - 1.0
22/03:30pm 12.6 4.7 1.0 45 4.9 SW 32 39 17 21 1022.1 - 1.0
22/03:00pm 12.8 5.1 2.1 48 4.6 SW 32 39 17 21 1021.8 - 1.0
22/02:30pm 12.8 4.6 0.5 43 5.1 SW 33 48 18 26 1021.4 - 1.0
22/02:00pm 12.6 5.4 3.0 52 4.2 SW 30 39 16 21 1021.2 - 1.0
22/01:30pm 12.9 5.2 3.3 52 4.3 SW 33 43 18 23 1020.9 - 1.0
22/01:01pm 12.4 5.0 3.9 56 3.8 WSW 32 50 17 27 1021.0 - 1.0
22/01:00pm 12.5 5.6 4.5 58 3.6 WSW 30 43 16 23 1021.1 - 1.0
22/12:38pm 12.2 5.4 4.9 61 3.3 SW 30 48 16 26 1021.4 - 1.0
22/12:30pm 11.9 5.5 6.8 71 2.4 SW 30 43 16 23 1021.4 - 1.0
22/12:00pm 10.4 2.1 6.0 74 2.0 SW 39 50 21 27 1021.3 - 1.0
22/11:48am 11.8 5.0 5.2 64 3.0 WSW 30 48 16 26 1021.3 - 1.0
22/11:30am 11.4 5.7 6.7 73 2.2 SW 26 37 14 20 1021.3 - 1.0
22/11:00am 9.9 4.8 5.9 76 1.8 WSW 22 33 12 18 1021.4 - 1.0
22/10:38am 7.9 -0.6 5.0 82 1.3 SW 39 57 21 31 1021.6 - 0.8
22/10:30am 8.3 -0.1 3.8 73 1.9 SW 37 61 20 33 1021.2 - 0.2
22/10:27am 10.5 3.4 5.3 70 2.4 SW 32 61 17 33 1021.2 - 0.2
22/10:00am 10.1 3.7 5.1 71 2.3 SW 28 35 15 19 1020.7 - 0.2
22/09:30am 9.7 3.9 6.2 79 1.6 WSW 26 37 14 20 1020.2 - 0.2
22/09:00am 9.3 4.5 5.7 78 1.6 W 20 28 11 15 1019.7 - 0.8
22/08:30am 9.1 4.2 5.3 77 1.7 WSW 20 30 11 16 1019.4 - 0.8
22/08:00am 9.1 3.8 4.9 75 1.9 W 22 32 12 17 1018.6 - 0.8
22/07:30am 8.7 3.3 4.3 74 1.9 W 22 32 12 17 1018.3 - 0.8
22/07:00am 8.7 3.6 4.1 73 2.0 WSW 20 28 11 15 1017.6 - 0.8
22/06:34am 8.8 1.4 3.8 71 2.2 WSW 32 50 17 27 1017.0 - 0.8
22/06:30am 8.9 0.9 3.9 71 2.2 WSW 35 52 19 28 1016.9 - 0.8
22/06:11am 9.8 2.0 2.6 61 3.1 WSW 33 61 18 33 1016.4 - 0.8
22/06:00am 9.7 2.8 2.3 60 3.1 WSW 28 43 15 23 1016.2 - 0.8
22/05:45am 9.9 3.0 2.5 60 3.1 WSW 28 46 15 25 1016.1 - 0.8
22/05:30am 10.3 3.0 2.4 58 3.4 WSW 30 44 16 24 1015.8 - 0.8
22/05:03am 10.4 2.6 2.7 59 3.3 WSW 33 54 18 29 1015.0 - 0.8
22/05:00am 10.3 2.1 2.9 60 3.2 WSW 35 46 19 25 1015.0 - 0.8
22/04:30am 10.2 3.5 5.4 72 2.2 WSW 30 50 16 27 1014.5 - 0.8
22/04:04am 10.3 3.3 6.1 75 1.9 WSW 32 50 17 27 1013.8 - 0.8
22/04:00am 10.4 2.9 6.2 75 2.0 W 35 50 19 27 1013.6 - 0.8
22/03:30am 11.3 3.6 5.2 66 2.8 WSW 35 57 19 31 1013.1 - 0.8
22/03:03am 11.5 2.6 5.2 65 2.9 WSW 41 65 22 35 1012.6 - 0.8
22/03:00am 11.4 2.8 4.8 64 3.0 WSW 39 56 21 30 1012.7 - 0.8
22/02:30am 11.8 2.7 6.1 68 2.7 WSW 43 69 23 37 1012.1 - 0.8
22/02:00am 12.2 2.0 6.9 70 2.5 W 50 85 27 46 1011.6 - 0.8
22/01:54am 12.3 4.3 7.4 72 2.4 W 39 80 21 43 1011.4 - 0.8
22/01:33am 11.4 3.7 8.8 84 1.3 W 39 57 21 31 1011.4 - 0.8
22/01:30am 11.6 3.5 8.8 83 1.4 W 41 57 22 31 1011.3 - 0.8
22/01:00am 11.6 4.0 9.2 85 1.2 W 39 59 21 32 1011.0 - 0.6
22/12:30am 11.6 3.1 9.2 85 1.2 W 44 67 24 36 1010.7 - 0.6
22/12:00am 11.3 3.0 9.4 88 1.0 W 43 67 23 36 1010.9 - 0.6
 
Date/Time
EST
Temp
°C
App
Temp
°C
Dew
Point
°C
Rel
Hum
%
Delta-T
°C
Wind Press
QNH
hPa
Press
MSL
hPa
Rain since
9am
mm
Dir  Spd
km/h
Gust
km/h
Spd
kts
Gust
kts
21/11:30pm 11.8 4.5 8.8 82 1.5 W 37 59 20 32 1010.4 - 0.2
21/11:00pm 13.4 4.4 7.4 67 2.9 W 44 65 24 35 1010.1 - 0.2
21/10:30pm 13.5 4.1 7.1 65 3.1 W 46 69 25 37 1010.2 - 0.2
21/10:00pm 13.4 4.6 7.2 66 3.0 W 43 72 23 39 1010.4 - 0.2
21/09:35pm 13.1 4.3 7.1 67 2.9 W 43 61 23 33 1010.7 - 0.2
21/09:30pm 13.0 4.2 7.2 68 2.8 W 43 59 23 32 1010.7 - 0.2
21/09:02pm 12.3 4.3 7.4 72 2.4 WNW 39 61 21 33 1011.1 - 0.2
21/09:00pm 12.1 4.4 7.2 72 2.4 WNW 37 54 20 29 1011.3 - 0.2
21/08:30pm 12.1 3.9 6.6 69 2.6 WNW 39 57 21 31 1011.7 - 0.2
21/08:00pm 12.3 3.7 6.4 67 2.8 W 41 59 22 32 1012.3 - 0.2
21/07:30pm 12.5 5.0 6.1 65 3.0 W 35 56 19 30 1012.1 - 0.2
21/07:15pm 12.3 5.4 6.6 68 2.7 W 32 50 17 27 1012.8 - 0.2
21/07:00pm 12.0 6.0 6.9 71 2.4 W 28 41 15 22 1013.1 - 0.2
21/06:30pm 11.8 6.6 7.3 74 2.2 W 24 41 13 22 1013.5 - 0.2
21/06:00pm 11.7 5.7 7.2 74 2.2 W 28 43 15 23 1013.2 - 0.2
21/05:36pm 12.1 5.3 7.0 71 2.4 W 32 50 17 27 1013.7 - 0.2
21/05:30pm 12.3 5.5 7.0 70 2.5 W 32 46 17 25 1013.8 - 0.2
21/05:18pm 12.7 6.6 6.5 66 3.0 W 28 50 15 27 1013.5 - 0.2
21/05:00pm 12.8 5.7 5.7 62 3.3 W 32 46 17 25 1013.6 - 0.2
21/04:30pm 13.2 4.4 5.6 60 3.6 W 41 70 22 38 1013.7 - 0.2
21/04:00pm 14.0 6.0 5.6 57 4.0 W 37 61 20 33 1014.0 - 0.2
21/03:30pm 13.9 6.9 6.7 62 3.5 W 33 52 18 28 1013.7 - 0.2
21/03:00pm 14.6 6.0 4.9 52 4.5 W 39 69 21 37 1014.3 - 0.2
21/02:30pm 14.9 4.7 5.4 53 4.5 W 48 70 26 38 1013.7 - 0.2
21/02:00pm 14.1 5.2 7.6 65 3.2 W 44 69 24 37 1014.2 - 0.2
21/01:30pm 14.8 6.6 6.4 57 4.1 W 39 61 21 33 1013.9 - 0.2
21/01:00pm 15.5 6.4 7.0 57 4.2 W 44 69 24 37 1014.2 - 0.2
21/12:30pm 15.4 5.8 7.9 61 3.8 W 48 72 26 39 1014.4 - 0.2
21/12:00pm 15.1 6.1 7.4 60 3.8 W 44 80 24 43 1014.5 - 0.2
21/11:30am 14.9 4.8 7.2 60 3.8 W 50 76 27 41 1014.8 - 0.2
21/11:00am 14.4 5.5 7.5 63 3.4 W 44 70 24 38 1014.9 - 0.2
21/10:30am 14.2 6.6 9.0 71 2.6 W 39 67 21 36 1015.0 - 0.2
21/10:00am 14.1 7.8 8.9 71 2.6 W 32 50 17 27 1014.9 - 0.0
21/09:30am 13.5 7.0 8.8 73 2.4 W 33 54 18 29 1014.9 - 0.0
21/09:00am 12.7 4.0 8.6 76 2.0 WSW 44 74 24 40 1014.8 - 0.4
21/08:54am 12.5 4.1 9.0 79 1.8 WSW 43 74 23 40 1015.0 - 0.4

Other formats

Comma delimited format used in spreadsheet applications
http://www.bom.gov.au/fwo/IDV60801/IDV60801.95907.axf

JavaScript Object Notation format (JSON) in row-major order
http://www.bom.gov.au/fwo/IDV60801/IDV60801.95907.json

Data quality

Most of these data are generated automatically and are frequently updated. Quality checks on data are not normally performed. It is possible for incorrect values to appear. Refer to information at About Latest Weather Observations and please check the disclaimer before using these data.